Aérodrome :
LOGIN :

S'inscrire | Disclaimer

   EN    FR    IT 

 










Légende :    VFR   VFR Marginal   IFR   IFR Intensif   IFR Très Intensif
Visi : 
Plafond : 
>= 8 km
>= 3000ft
5 à 8 km
1000 à 3000 ft
1500m à 5 km
500 à 1000 ft
800 à 1500m
200 à 500 ft
< 800m
< 200 ft
Symboles :   Orages  Brouillard  Fortes neiges  Fortes précipitations  Vent > 20 kt
SIGMETs :   Divers  Orages  Givrage  Turbulence  Onde Orograph.  Cendres Volcan.







- Altitude de l'aérodrome : 479 ft
- Code IATA : DOL
- Voir les cartes d'approche


LFRG - Deauville

DERNIER METAR :
  • 181100Z AUTO 19008KT CAVOK 18/15 Q1012 TEMPO SHRA BKN012TCU

METARs EXPIRÉS :
  • 181030Z AUTO 19006KT 9999 FEW037 BKN098 OVC110 17/15 Q1012 TEMPO SHRA BKN012TCU
  • 181000Z AUTO 19008KT 9000 -RA NSC 16/14 Q1012 TEMPO SHRA BKN012TCU
  • 180930Z AUTO 19006KT CAVOK 16/14 Q1012 TEMPO SHRA BKN012TCU
  • 180900Z AUTO 19009KT CAVOK 16/14 Q1012 TEMPO RA BKN008
  • 180830Z AUTO 19009KT CAVOK 16/14 Q1012 TEMPO 4000 RA BR BKN008

TAF TAF LFRG
Valide du 18 à 09h jusqu'au 18 à 18h UTC


180800Z 1809/1818 18007KT 9999 SCT030 OVC070
TEMPO 1809/1811 5000 RA BKN008
BECMG 1809/1811 BKN018
PROB40
TEMPO 1811/1818 5000 SHRA BKN012TCU
ATIS : +33 2 31 65 65 36
Pas de NOTAMs connus pour ce terrain.



MET'MAP, la Météo Aéronautique d'un coup d'oeil ! - Copyright ORBIFLY Décembre 2007 - Disclaimer

ORBIFLY MET'MAP TEAM :

Programmation & Développement : Alexandra Zaïnal
Conception & Développement : Baudouin d'Aumeries
Co-Programmation & Développement : Marc-Olivier Méhu
Soutien technique & logistique : Manuel Goepfert

Contact : metmap@orbifly.com




SOURCES & CREDITS :

   NOAA